createdAt,value
2022-12-12T00:03:07.322Z,87.83
2022-12-12T00:05:50.810Z,95.13
2022-12-12T00:08:26.252Z,96.37
2022-12-12T00:11:01.591Z,84.77
2022-12-12T00:13:39.071Z,79.33
2022-12-12T00:16:16.368Z,92.67
2022-12-12T00:19:27.515Z,104.27
2022-12-12T00:22:10.024Z,93.77
2022-12-12T00:24:45.036Z,81.53
2022-12-12T00:27:50.362Z,87.00
2022-12-12T00:30:47.064Z,93.37
2022-12-12T00:33:22.300Z,95.67
2022-12-12T00:35:58.429Z,86.57
2022-12-12T00:38:33.692Z,86.63
2022-12-12T00:41:09.021Z,91.57
2022-12-12T00:43:43.285Z,96.53
2022-12-12T00:46:22.784Z,101.40
2022-12-12T00:49:00.251Z,89.50
2022-12-12T00:51:35.098Z,88.83
2022-12-12T00:54:10.081Z,93.50
2022-12-12T00:56:45.979Z,92.27
2022-12-12T00:59:21.156Z,102.60
2022-12-12T01:01:57.526Z,99.70
2022-12-12T01:04:32.374Z,100.27
2022-12-12T01:07:07.445Z,104.90
2022-12-12T01:09:41.758Z,94.60
2022-12-12T01:12:16.059Z,102.50
2022-12-12T01:14:50.547Z,101.97
2022-12-12T01:17:27.596Z,122.23
2022-12-12T01:20:01.880Z,114.13
2022-12-12T01:22:36.647Z,98.50
2022-12-12T01:25:12.027Z,110.83
2022-12-12T01:27:47.579Z,108.60
2022-12-12T01:30:23.990Z,113.93
2022-12-12T01:33:40.375Z,119.27
2022-12-12T01:36:23.504Z,107.27
2022-12-12T01:39:00.907Z,109.13
2022-12-12T01:41:36.312Z,109.57
2022-12-12T01:44:32.723Z,107.05
2022-12-12T01:47:07.312Z,113.60
2022-12-12T01:49:44.577Z,129.87
2022-12-12T01:52:23.739Z,118.00
2022-12-12T01:55:01.564Z,112.23
2022-12-12T01:57:40.254Z,129.87
2022-12-12T02:00:16.269Z,112.30
2022-12-12T02:03:31.529Z,119.23
2022-12-12T02:06:16.822Z,108.50
2022-12-12T02:08:52.122Z,118.93
2022-12-12T02:11:26.087Z,107.87
2022-12-12T02:14:00.818Z,102.77
2022-12-12T02:16:54.017Z,114.93
2022-12-12T02:19:56.398Z,109.83
2022-12-12T02:22:49.412Z,126.30
2022-12-12T02:25:48.778Z,110.60
2022-12-12T02:28:53.375Z,135.77
2022-12-12T02:31:35.699Z,135.30
2022-12-12T02:34:16.555Z,118.27
2022-12-12T02:36:57.631Z,144.20
2022-12-12T02:39:37.856Z,126.10
2022-12-12T02:42:19.910Z,117.90
2022-12-12T02:45:01.207Z,122.10
2022-12-12T02:47:40.661Z,126.13
2022-12-12T02:50:18.349Z,119.50
2022-12-12T02:52:54.614Z,130.03
2022-12-12T02:55:32.455Z,127.27
2022-12-12T02:58:10.778Z,145.93
2022-12-12T03:00:53.095Z,110.03
2022-12-12T03:03:52.325Z,116.97
2022-12-12T03:06:58.694Z,123.80
2022-12-12T03:09:43.201Z,112.37
2022-12-12T03:12:22.233Z,127.00
2022-12-12T03:15:05.769Z,128.33
2022-12-12T03:17:45.776Z,133.93
2022-12-12T03:20:28.718Z,141.90
2022-12-12T03:23:06.479Z,119.80
2022-12-12T03:25:46.238Z,131.87
2022-12-12T03:28:25.501Z,128.70
2022-12-12T03:31:04.766Z,111.73
2022-12-12T03:33:44.440Z,129.73
2022-12-12T03:36:24.263Z,128.60
2022-12-12T03:39:02.980Z,134.87
2022-12-12T03:41:41.565Z,129.07
2022-12-12T03:44:21.150Z,109.40
2022-12-12T03:46:58.249Z,136.30
2022-12-12T03:49:38.745Z,120.03
2022-12-12T03:52:20.367Z,120.23
2022-12-12T03:55:00.267Z,123.87
2022-12-12T03:57:39.930Z,128.17
2022-12-12T04:00:18.655Z,112.50
2022-12-12T04:02:58.996Z,127.90
2022-12-12T04:06:02.802Z,118.20
2022-12-12T04:09:05.149Z,147.47
2022-12-12T04:12:01.784Z,118.57
2022-12-12T04:15:01.694Z,109.07
2022-12-12T04:17:44.549Z,119.37
2022-12-12T04:20:45.123Z,122.50
2022-12-12T04:23:41.961Z,114.20
2022-12-12T04:26:40.810Z,119.33
2022-12-12T04:29:40.606Z,114.67
2022-12-12T04:32:25.350Z,104.07
2022-12-12T04:35:06.655Z,96.53
2022-12-12T04:37:45.385Z,114.37
2022-12-12T04:40:28.486Z,112.73
2022-12-12T04:43:12.104Z,101.83
2022-12-12T04:45:51.808Z,106.60
2022-12-12T04:48:38.043Z,100.87
2022-12-12T04:51:17.173Z,119.20
2022-12-12T04:53:58.162Z,114.27
2022-12-12T04:56:39.170Z,121.17
2022-12-12T04:59:20.102Z,107.53
2022-12-12T05:02:05.080Z,102.27
2022-12-12T05:04:46.148Z,118.60
2022-12-12T05:07:26.583Z,112.73
2022-12-12T05:10:02.949Z,117.07
2022-12-12T05:12:45.338Z,108.03
2022-12-12T05:15:24.641Z,113.10
2022-12-12T05:18:04.693Z,108.70
2022-12-12T05:20:39.387Z,105.83
2022-12-12T05:23:13.898Z,114.67
2022-12-12T05:25:48.540Z,89.30
2022-12-12T05:28:23.311Z,100.80
2022-12-12T05:30:59.988Z,104.13
2022-12-12T05:33:34.864Z,101.13
2022-12-12T05:36:09.467Z,89.40
2022-12-12T05:38:44.676Z,94.30
2022-12-12T05:41:19.203Z,100.90
2022-12-12T05:43:54.070Z,95.43
2022-12-12T05:46:31.185Z,104.60
2022-12-12T05:49:05.788Z,91.20
2022-12-12T05:51:41.392Z,91.60
2022-12-12T05:54:15.416Z,101.27
2022-12-12T05:56:50.029Z,107.00
2022-12-12T05:59:24.356Z,86.83
2022-12-12T06:02:01.196Z,101.13
2022-12-12T06:04:35.834Z,99.90
2022-12-12T06:07:11.901Z,105.67
2022-12-12T06:09:46.719Z,90.53
2022-12-12T06:12:21.199Z,104.00
2022-12-12T06:14:56.056Z,117.27
2022-12-12T06:17:34.008Z,86.23
2022-12-12T06:20:08.485Z,104.40
2022-12-12T06:22:45.920Z,96.80
2022-12-12T06:25:32.127Z,89.50
2022-12-12T06:28:08.323Z,83.77
2022-12-12T06:30:42.625Z,90.40
2022-12-12T06:33:18.747Z,106.50
2022-12-12T06:36:03.857Z,101.20
2022-12-12T06:38:40.199Z,85.90
2022-12-12T06:41:16.639Z,96.27
2022-12-12T06:47:54.607Z,100.87
2022-12-12T06:50:51.590Z,102.63
2022-12-12T06:53:25.879Z,105.97
2022-12-12T06:56:00.481Z,93.13
2022-12-12T06:58:34.670Z,94.33
2022-12-12T07:01:09.482Z,85.00
2022-12-12T07:03:44.058Z,102.30
2022-12-12T07:06:20.721Z,98.97
2022-12-12T07:08:58.085Z,91.70
2022-12-12T07:11:34.205Z,101.30
2022-12-12T07:14:49.946Z,101.50
2022-12-12T07:17:30.623Z,102.67
2022-12-12T07:20:06.006Z,84.67
2022-12-12T07:23:38.976Z,99.33
2022-12-12T07:26:22.697Z,95.50
2022-12-12T07:28:57.860Z,108.87
2022-12-12T07:31:32.727Z,92.60
2022-12-12T07:34:07.071Z,103.83
2022-12-12T07:36:41.511Z,92.67
2022-12-12T07:39:20.912Z,99.50
2022-12-12T07:41:55.130Z,96.17
2022-12-12T07:44:31.768Z,102.53
2022-12-12T07:47:06.843Z,105.20
2022-12-12T07:49:40.929Z,106.40
2022-12-12T07:52:16.119Z,108.60
2022-12-12T07:54:54.223Z,106.90
2022-12-12T07:57:28.785Z,105.00
2022-12-12T08:00:03.580Z,105.30
2022-12-12T08:02:45.496Z,103.93
2022-12-12T08:05:20.328Z,99.67
2022-12-12T08:08:06.124Z,104.07
2022-12-12T08:10:44.065Z,111.43
2022-12-12T08:13:19.492Z,109.87
2022-12-12T08:15:53.799Z,96.63
2022-12-12T08:18:29.021Z,108.50
2022-12-12T08:21:04.250Z,95.87
2022-12-12T08:23:39.589Z,100.40
2022-12-12T08:26:18.648Z,97.50
2022-12-12T08:28:53.573Z,111.13
2022-12-12T08:31:28.618Z,93.43
2022-12-12T08:34:04.534Z,106.40
2022-12-12T08:36:40.193Z,118.97
2022-12-12T08:39:17.597Z,91.63
2022-12-12T08:41:56.030Z,97.43
2022-12-12T08:44:31.518Z,111.80
2022-12-12T08:47:06.998Z,106.40
2022-12-12T08:49:41.580Z,109.30
2022-12-12T08:52:16.080Z,105.10
2022-12-12T08:55:37.125Z,109.10
2022-12-12T08:58:26.052Z,96.43
2022-12-12T09:01:01.136Z,107.53
2022-12-12T09:03:36.708Z,123.13
2022-12-12T09:06:12.099Z,108.17
2022-12-12T09:08:47.670Z,115.17
2022-12-12T09:11:23.363Z,109.53
2022-12-12T09:14:00.341Z,127.53
2022-12-12T09:16:37.782Z,128.37
2022-12-12T09:19:12.405Z,131.33
2022-12-12T09:21:47.929Z,99.13
2022-12-12T09:24:22.348Z,113.53
2022-12-12T09:26:57.844Z,123.47
2022-12-12T09:30:27.636Z,133.43
2022-12-12T09:33:41.393Z,116.53
2022-12-12T09:37:01.621Z,120.53
2022-12-12T09:39:36.607Z,105.17
2022-12-12T09:42:24.727Z,113.13
2022-12-12T09:45:09.910Z,120.43
2022-12-12T09:47:49.064Z,123.17
2022-12-12T09:50:30.851Z,134.80
2022-12-12T09:53:07.952Z,127.77
2022-12-12T09:55:48.857Z,137.63
2022-12-12T09:58:31.121Z,134.07
2022-12-12T10:01:13.553Z,131.17
2022-12-12T10:04:00.424Z,143.90
2022-12-12T10:06:43.220Z,123.20
2022-12-12T10:09:40.154Z,147.47
2022-12-12T10:12:20.002Z,156.50
2022-12-12T10:15:03.829Z,148.40
2022-12-12T10:17:45.089Z,122.33
2022-12-12T10:20:26.239Z,130.37
2022-12-12T10:23:07.634Z,141.10
2022-12-12T10:25:50.528Z,157.67
2022-12-12T10:28:28.286Z,136.47
2022-12-12T10:31:21.554Z,157.20
2022-12-12T10:34:14.060Z,162.93
2022-12-12T10:37:02.926Z,162.60
2022-12-12T10:39:47.175Z,163.20
2022-12-12T10:42:29.501Z,168.37
2022-12-12T10:45:58.615Z,176.13
2022-12-12T10:49:22.991Z,157.63
2022-12-12T10:52:21.391Z,182.53
2022-12-12T10:55:00.550Z,155.87
2022-12-12T10:57:41.793Z,154.80
2022-12-12T11:00:31.425Z,160.67
2022-12-12T11:03:28.373Z,167.13
2022-12-12T11:06:59.877Z,154.23
2022-12-12T11:10:05.758Z,166.47
2022-12-12T11:12:48.579Z,152.70
2022-12-12T11:15:24.818Z,151.70
2022-12-12T11:18:06.308Z,163.60
2022-12-12T11:20:52.702Z,164.87
2022-12-12T11:23:34.176Z,160.17
2022-12-12T11:27:10.854Z,146.10
2022-12-12T11:31:00.811Z,153.53
2022-12-12T11:33:50.688Z,158.30
2022-12-12T11:36:36.295Z,155.50
2022-12-12T11:39:27.226Z,167.70
2022-12-12T11:42:09.939Z,157.60
2022-12-12T11:44:47.990Z,161.33
2022-12-12T11:48:05.119Z,146.63
2022-12-12T11:51:15.037Z,146.17
2022-12-12T11:53:53.432Z,158.30
2022-12-12T11:56:51.222Z,163.20
2022-12-12T12:00:02.038Z,159.80
2022-12-12T12:03:08.378Z,144.10
2022-12-12T12:05:58.515Z,145.80
2022-12-12T12:08:50.072Z,144.83
2022-12-12T12:11:35.085Z,140.17
2022-12-12T12:14:49.217Z,153.63
2022-12-12T12:17:35.895Z,160.73
2022-12-12T12:20:24.932Z,152.47
2022-12-12T12:23:10.469Z,142.97
2022-12-12T12:25:56.982Z,145.50
2022-12-12T12:28:50.878Z,142.50
2022-12-12T12:31:33.985Z,145.50
2022-12-12T12:34:22.922Z,130.00
2022-12-12T12:37:19.419Z,142.90
2022-12-12T12:40:14.829Z,141.93
2022-12-12T12:43:11.499Z,146.07
2022-12-12T12:45:54.942Z,140.93
2022-12-12T12:48:37.038Z,150.67
2022-12-12T12:51:22.033Z,139.13
2022-12-12T12:54:07.465Z,137.83
2022-12-12T12:56:51.321Z,153.07
2022-12-12T12:59:33.566Z,133.43
2022-12-12T13:02:21.210Z,148.70
2022-12-12T13:05:13.553Z,145.37
2022-12-12T13:07:57.574Z,142.87
2022-12-12T13:10:39.252Z,138.57
2022-12-12T13:13:25.004Z,139.13
2022-12-12T13:16:06.226Z,135.93
2022-12-12T13:18:46.171Z,119.77
2022-12-12T13:21:30.598Z,130.97
2022-12-12T13:24:14.196Z,134.63
2022-12-12T13:27:00.795Z,148.63
2022-12-12T13:29:45.610Z,138.50
2022-12-12T13:32:56.838Z,129.17
2022-12-12T13:35:37.615Z,136.53
2022-12-12T13:38:25.667Z,141.90
2022-12-12T13:41:11.076Z,144.60
2022-12-12T13:43:53.004Z,128.40
2022-12-12T13:46:46.770Z,134.77
2022-12-12T13:49:37.123Z,147.10
2022-12-12T13:52:31.343Z,127.23
2022-12-12T13:55:29.530Z,122.43
2022-12-12T13:58:22.938Z,144.90
2022-12-12T14:01:43.007Z,130.77
2022-12-12T14:04:35.125Z,127.30
2022-12-12T14:07:21.015Z,154.67
2022-12-12T14:10:03.996Z,143.13
2022-12-12T14:12:53.800Z,137.00
2022-12-12T14:15:41.226Z,143.90
2022-12-12T14:18:30.089Z,139.70
2022-12-12T14:21:10.198Z,129.17
2022-12-12T14:23:50.908Z,124.50
2022-12-12T14:26:55.381Z,130.23
2022-12-12T14:29:35.690Z,131.37
2022-12-12T14:32:46.804Z,132.00
2022-12-12T14:35:37.398Z,119.03
2022-12-12T14:38:27.782Z,154.73
2022-12-12T14:41:09.611Z,143.80
2022-12-12T14:44:37.981Z,142.83
2022-12-12T14:46:54.645Z,133.57
2022-12-12T14:49:31.637Z,122.20
2022-12-12T14:52:12.611Z,149.97
2022-12-12T14:54:51.646Z,137.57
2022-12-12T14:57:29.770Z,133.13
2022-12-12T15:00:10.228Z,128.73
2022-12-12T15:02:54.433Z,123.47
2022-12-12T15:05:31.641Z,129.07
2022-12-12T15:08:10.900Z,130.03
2022-12-12T15:10:48.682Z,135.83
2022-12-12T15:13:25.824Z,133.00
2022-12-12T15:16:02.562Z,123.17
2022-12-12T15:18:39.230Z,124.70
2022-12-12T15:21:15.308Z,133.80
2022-12-12T15:23:54.545Z,130.77
2022-12-12T15:26:33.030Z,125.27
2022-12-12T15:29:10.084Z,137.00
2022-12-12T15:31:51.031Z,130.33
2022-12-12T15:34:44.938Z,138.17
2022-12-12T15:37:33.393Z,136.33
2022-12-12T15:40:31.799Z,133.43
2022-12-12T15:43:14.556Z,133.27
2022-12-12T15:45:55.315Z,135.23
2022-12-12T15:48:32.787Z,140.57
2022-12-12T15:51:12.145Z,125.40
2022-12-12T15:53:53.885Z,134.83
2022-12-12T15:56:34.849Z,129.47
2022-12-12T15:59:27.270Z,138.47
2022-12-12T16:02:18.629Z,125.97
2022-12-12T16:05:03.394Z,134.87
2022-12-12T16:07:43.813Z,148.33
2022-12-12T16:10:30.033Z,129.90
2022-12-12T16:13:23.791Z,120.27
2022-12-12T16:15:59.706Z,141.13
2022-12-12T16:18:39.753Z,134.67
2022-12-12T16:21:16.079Z,129.57
2022-12-12T16:23:53.244Z,125.03
2022-12-12T16:26:29.259Z,136.60
2022-12-12T16:29:07.973Z,125.27
2022-12-12T16:31:45.235Z,128.60
2022-12-12T16:34:20.246Z,122.07
2022-12-12T16:36:55.700Z,142.63
2022-12-12T16:39:30.309Z,141.33
2022-12-12T16:42:05.108Z,117.70
2022-12-12T16:44:41.990Z,125.87
2022-12-12T16:47:56.620Z,135.00
2022-12-12T16:50:38.030Z,133.10
2022-12-12T16:53:41.113Z,127.97
2022-12-12T16:56:17.843Z,135.13
2022-12-12T16:58:55.061Z,120.33
2022-12-12T17:01:34.606Z,123.13
2022-12-12T17:04:19.759Z,135.53
2022-12-12T17:06:54.700Z,126.03
2022-12-12T17:09:30.285Z,144.53
2022-12-12T17:12:04.448Z,133.23
2022-12-12T17:14:39.688Z,128.33
2022-12-12T17:17:17.536Z,120.80
2022-12-12T17:19:51.715Z,128.43
2022-12-12T17:22:26.163Z,127.37
2022-12-12T17:25:00.561Z,126.20
2022-12-12T17:27:34.624Z,128.50
2022-12-12T17:30:09.629Z,140.07
2022-12-12T17:35:33.027Z,138.87
2022-12-12T17:38:09.221Z,147.93
2022-12-12T17:40:48.501Z,127.23
2022-12-12T17:43:22.775Z,127.03
2022-12-12T17:46:04.278Z,139.90
2022-12-12T17:48:41.209Z,148.83
2022-12-12T17:51:17.903Z,129.97
2022-12-12T17:53:54.203Z,138.97
2022-12-12T17:56:29.555Z,145.60
2022-12-12T17:59:08.117Z,132.90
2022-12-12T18:01:42.393Z,148.30
2022-12-12T18:04:23.154Z,139.03
2022-12-12T18:07:00.127Z,128.40
2022-12-12T18:09:35.050Z,133.87
2022-12-12T18:12:11.366Z,131.23
2022-12-12T18:14:46.623Z,139.77
2022-12-12T18:17:22.340Z,131.87
2022-12-12T18:20:00.631Z,134.53
2022-12-12T18:22:35.832Z,140.00
2022-12-12T18:25:10.924Z,137.90
2022-12-12T18:27:46.580Z,148.00
2022-12-12T18:30:21.589Z,139.33
2022-12-12T18:33:02.780Z,151.20
2022-12-12T18:35:40.851Z,123.73
2022-12-12T18:38:15.241Z,141.13
2022-12-12T18:40:49.456Z,146.20
2022-12-12T18:43:25.918Z,146.47
2022-12-12T18:46:01.542Z,145.30
2022-12-12T18:48:39.594Z,146.10
2022-12-12T18:51:17.739Z,143.47
2022-12-12T18:53:53.472Z,132.33
2022-12-12T18:56:29.353Z,131.00
2022-12-12T18:59:05.405Z,154.30
2022-12-12T19:01:41.452Z,153.10
2022-12-12T19:04:22.458Z,143.97
2022-12-12T19:07:00.876Z,147.17
2022-12-12T19:09:36.403Z,152.17
2022-12-12T19:12:12.580Z,157.67
2022-12-12T19:17:42.031Z,141.93
2022-12-12T19:20:17.622Z,161.40
2022-12-12T19:22:53.866Z,150.67
2022-12-12T19:25:28.018Z,154.23
2022-12-12T19:28:03.945Z,151.43
2022-12-12T19:30:40.119Z,163.97
2022-12-12T19:33:14.476Z,152.67
2022-12-12T19:35:48.824Z,146.87
2022-12-12T19:38:26.139Z,143.60
2022-12-12T19:41:00.481Z,147.10
2022-12-12T19:43:35.271Z,150.33
2022-12-12T19:46:13.780Z,158.87
2022-12-12T19:48:48.934Z,153.67
2022-12-12T19:51:25.196Z,141.17
2022-12-12T19:54:03.561Z,157.10
2022-12-12T19:56:39.422Z,156.77
2022-12-12T19:59:16.037Z,151.30
2022-12-12T20:01:51.118Z,146.30
2022-12-12T20:04:27.339Z,152.30
2022-12-12T20:07:01.713Z,157.47
2022-12-12T20:09:40.929Z,154.80
2022-12-12T20:12:15.122Z,142.20
2022-12-12T20:14:50.061Z,145.57
2022-12-12T20:17:25.724Z,141.93
2022-12-12T20:20:00.739Z,149.40
2022-12-12T20:22:34.928Z,146.40
2022-12-12T20:25:11.575Z,149.83
2022-12-12T20:27:46.303Z,158.63
2022-12-12T20:30:20.389Z,142.27
2022-12-12T20:32:55.256Z,140.87
2022-12-12T20:35:29.591Z,149.00
2022-12-12T20:38:03.966Z,144.23
2022-12-12T20:40:43.699Z,147.57
2022-12-12T20:43:18.407Z,127.70
2022-12-12T20:45:52.892Z,144.30
2022-12-12T20:48:27.960Z,148.97
2022-12-12T20:51:04.281Z,144.27
2022-12-12T20:53:40.793Z,158.17
2022-12-12T20:56:20.982Z,141.47
2022-12-12T20:59:01.629Z,160.40
2022-12-12T21:01:37.537Z,162.70
2022-12-12T21:04:13.201Z,137.73
2022-12-12T21:06:51.768Z,144.53
2022-12-12T21:09:28.523Z,151.67
2022-12-12T21:12:06.167Z,146.53
2022-12-12T21:14:40.232Z,154.37
2022-12-12T21:17:14.393Z,160.77
2022-12-12T21:19:48.989Z,158.90
2022-12-12T21:22:23.136Z,151.40
2022-12-12T21:24:57.357Z,148.03
2022-12-12T21:27:35.316Z,156.93
2022-12-12T21:30:10.809Z,156.23
2022-12-12T21:32:45.565Z,156.30
2022-12-12T21:35:19.664Z,153.97
2022-12-12T21:37:53.660Z,154.97
2022-12-12T21:40:28.385Z,157.93
2022-12-12T21:43:04.444Z,152.40
2022-12-12T21:45:41.227Z,150.53
2022-12-12T21:48:16.123Z,146.03
2022-12-12T21:50:50.249Z,153.87
2022-12-12T21:53:40.467Z,150.93
2022-12-12T21:56:16.873Z,138.87
2022-12-12T21:58:54.318Z,159.23
2022-12-12T22:01:28.684Z,145.27
2022-12-12T22:04:04.348Z,133.73
2022-12-12T22:06:41.060Z,137.70
2022-12-12T22:09:17.481Z,145.23
2022-12-12T22:12:03.051Z,135.80
2022-12-12T22:14:40.957Z,135.03
2022-12-12T22:17:15.825Z,133.27
2022-12-12T22:19:50.895Z,141.73
2022-12-12T22:22:25.022Z,148.77
2022-12-12T22:25:00.378Z,150.60
2022-12-12T22:27:34.379Z,146.53
2022-12-12T22:30:11.554Z,140.43
2022-12-12T22:32:46.648Z,133.40
2022-12-12T22:35:20.975Z,142.47
2022-12-12T22:37:55.293Z,131.77
2022-12-12T22:40:29.285Z,128.27
2022-12-12T22:43:04.802Z,124.20
2022-12-12T22:45:42.713Z,132.83
2022-12-12T22:48:17.210Z,139.90
2022-12-12T22:50:52.182Z,120.90
2022-12-12T22:53:26.325Z,119.90
2022-12-12T22:56:05.523Z,135.50
2022-12-12T22:58:40.291Z,137.93
2022-12-12T23:01:18.808Z,143.70
2022-12-12T23:03:53.524Z,134.10
2022-12-12T23:06:29.380Z,134.90
2022-12-12T23:09:05.836Z,122.70
2022-12-12T23:11:41.708Z,146.93
2022-12-12T23:14:18.962Z,141.00
2022-12-12T23:16:56.187Z,130.03
2022-12-12T23:19:32.078Z,139.60
2022-12-12T23:22:06.069Z,134.83
2022-12-12T23:24:40.121Z,126.57
2022-12-12T23:27:15.047Z,121.23
2022-12-12T23:29:50.109Z,144.27
2022-12-12T23:32:26.415Z,131.60
2022-12-12T23:35:02.057Z,139.70
2022-12-12T23:37:36.443Z,129.57
2022-12-12T23:40:11.591Z,136.40
2022-12-12T23:42:46.598Z,142.10
2022-12-12T23:45:21.485Z,126.07
2022-12-12T23:47:58.405Z,126.97
2022-12-12T23:50:32.384Z,135.70
2022-12-12T23:53:10.585Z,139.67
2022-12-12T23:55:45.602Z,137.97
2022-12-12T23:58:20.361Z,132.13
